Time;durP1;ratioP1;P1;durP2;ratioP2;P2;SDS_P1;SDS_P2;PMS_P1;PMS_P2;Temp;Humidity;BMP_temperature;BMP_pressure;BME280_temperature;BME280_humidity;BME280_pressure;Samples;Min_cycle;Max_cycle;Signal;HPM_P1;HPM_P2
2022/12/29 00:01:07;;;;;;;18.42;12.73;;;11.60;99.90;;;;;;5094921;28;20072;-74
2022/12/29 00:03:35;;;;;;;20.60;12.52;;;11.60;99.90;;;;;;5078779;28;20043;-75
2022/12/29 00:06:02;;;;;;;16.25;11.65;;;11.60;99.90;;;;;;5092427;28;20039;-74
2022/12/29 00:08:39;;;;;;;20.85;14.15;;;11.60;99.90;;;;;;5083858;28;20098;-75
2022/12/29 00:11:20;;;;;;;25.48;13.27;;;11.60;99.90;;;;;;5096936;28;20124;-75
2022/12/29 00:16:35;;;;;;;;;;;11.60;99.90;;;;;;5098672;28;20063;-74
2022/12/29 00:19:04;;;;;;;17.75;12.73;;;11.60;99.90;;;;;;5087595;28;19959;-75
2022/12/29 00:35:32;;;;;;;17.50;10.95;;;11.70;99.90;;;;;;5099915;28;20119;-74
2022/12/29 00:46:23;;;;;;;15.20;10.45;;;11.80;99.90;;;;;;5099851;28;20036;-74
2022/12/29 00:51:36;;;;;;;17.67;10.55;;;11.80;99.90;;;;;;5094704;28;20101;-74
2022/12/29 00:54:04;;;;;;;15.30;10.70;;;11.80;99.90;;;;;;5085137;28;20046;-74
2022/12/29 00:56:31;;;;;;;12.30;10.07;;;11.80;99.90;;;;;;5096593;28;20152;-74
2022/12/29 00:59:04;;;;;;;18.23;11.00;;;11.90;99.90;;;;;;5093966;28;20040;-75
2022/12/29 01:01:33;;;;;;;16.02;9.70;;;11.90;99.90;;;;;;5090094;28;20094;-75
2022/12/29 01:04:00;;;;;;;16.02;10.95;;;11.90;99.90;;;;;;5086764;28;20044;-75
2022/12/29 01:06:30;;;;;;;15.00;11.65;;;11.90;99.90;;;;;;5107068;28;20035;-75
2022/12/29 01:11:43;;;;;;;15.55;10.20;;;12.00;99.90;;;;;;5104515;28;20044;-74
2022/12/29 01:14:11;;;;;;;19.08;10.57;;;12.00;99.90;;;;;;5086430;28;20040;-75
2022/12/29 01:16:38;;;;;;;16.15;10.15;;;12.00;99.90;;;;;;5089119;28;20114;-74
2022/12/29 01:19:06;;;;;;;16.75;9.80;;;12.00;99.90;;;;;;5095491;28;20040;-74
2022/12/29 01:21:34;;;;;;;14.75;10.98;;;11.90;99.90;;;;;;5095627;28;20036;-75
2022/12/29 01:24:01;;;;;;;16.20;11.25;;;11.90;99.90;;;;;;5084344;27;20471;-74
2022/12/29 01:26:29;;;;;;;16.60;10.80;;;11.90;99.90;;;;;;5105835;28;20534;-74
2022/12/29 01:28:56;;;;;;;17.08;10.00;;;11.90;99.90;;;;;;5091204;28;20046;-75
2022/12/29 01:31:24;;;;;;;19.00;11.15;;;11.90;99.90;;;;;;5101125;28;20604;-75
2022/12/29 01:33:53;;;;;;;16.95;12.35;;;11.90;99.90;;;;;;5059718;28;20044;-74
2022/12/29 01:36:20;;;;;;;16.55;10.93;;;11.90;99.90;;;;;;5105427;28;20112;-75
2022/12/29 01:38:48;;;;;;;14.60;10.73;;;11.80;99.90;;;;;;5103743;28;20050;-75
2022/12/29 01:41:16;;;;;;;18.95;11.20;;;11.80;99.90;;;;;;5094879;28;20047;-75
2022/12/29 01:43:45;;;;;;;16.42;10.88;;;11.80;99.90;;;;;;5074064;28;20212;-75
2022/12/29 01:46:27;;;;;;;15.35;11.07;;;11.80;99.90;;;;;;5096794;28;20032;-74
2022/12/29 01:49:20;;;;;;;16.75;11.23;;;11.80;99.90;;;;;;5093946;28;20048;-75
2022/12/29 01:51:50;;;;;;;16.80;10.45;;;11.80;99.90;;;;;;5093717;28;20085;-75
2022/12/29 01:54:25;;;;;;;19.50;10.40;;;11.70;99.90;;;;;;5093726;28;20089;-74
2022/12/29 01:56:58;;;;;;;20.05;11.52;;;11.80;99.90;;;;;;5094200;28;20040;-74
2022/12/29 01:59:30;;;;;;;16.00;12.32;;;11.80;99.90;;;;;;5078248;28;20476;-74
2022/12/29 02:01:58;;;;;;;21.70;11.30;;;11.80;99.90;;;;;;5077258;28;20047;-75
2022/12/29 02:04:30;;;;;;;15.77;9.95;;;11.80;99.90;;;;;;5090277;28;20399;-74
2022/12/29 02:07:04;;;;;;;16.60;10.98;;;11.80;99.90;;;;;;5080573;28;20048;-74
2022/12/29 02:09:32;;;;;;;15.48;9.38;;;11.80;99.90;;;;;;5090711;28;20100;-74
2022/12/29 02:12:00;;;;;;;15.63;9.98;;;11.80;99.90;;;;;;5082755;28;20102;-74
2022/12/29 02:14:29;;;;;;;17.48;10.93;;;11.80;99.90;;;;;;5097377;28;20047;-74
2022/12/29 02:17:31;;;;;;;19.70;11.35;;;11.70;99.90;;;;;;5106249;28;20050;-74
2022/12/29 02:20:37;;;;;;;17.10;10.80;;;11.60;99.90;;;;;;5084642;28;20105;-74
2022/12/29 02:23:29;;;;;;;18.48;11.38;;;11.60;99.90;;;;;;5085045;28;20086;-74
2022/12/29 02:26:23;;;;;;;17.52;11.77;;;11.50;99.90;;;;;;5077723;28;20484;-74
2022/12/29 02:29:25;;;;;;;16.60;12.43;;;11.50;99.90;;;;;;5051070;28;20457;-74
2022/12/29 02:32:13;;;;;;;19.60;12.73;;;11.50;99.90;;;;;;5077816;28;20055;-74
2022/12/29 02:34:47;;;;;;;20.45;12.95;;;11.50;99.90;;;;;;5075397;28;20128;-74
2022/12/29 02:37:26;;;;;;;19.77;12.38;;;11.50;99.90;;;;;;5093379;28;20496;-74
2022/12/29 02:40:18;;;;;;;15.27;12.10;;;11.50;99.90;;;;;;5100047;28;20346;-74
2022/12/29 02:42:54;;;;;;;18.98;13.05;;;11.60;99.90;;;;;;5071109;28;20041;-74
2022/12/29 02:45:41;;;;;;;21.05;13.35;;;11.60;99.90;;;;;;5113208;27;20047;-74
2022/12/29 02:48:35;;;;;;;16.45;11.90;;;11.60;99.90;;;;;;5096655;28;20036;-74
2022/12/29 02:51:10;;;;;;;18.95;11.15;;;11.60;99.90;;;;;;5076056;28;20046;-74
2022/12/29 02:56:25;;;;;;;18.17;11.07;;;11.60;99.90;;;;;;5092493;28;20050;-74
2022/12/29 02:58:53;;;;;;;17.27;11.25;;;11.60;99.90;;;;;;5076793;28;20032;-75
2022/12/29 03:04:56;;;;;;;18.83;11.73;;;11.60;99.90;;;;;;5086953;28;20058;-74
2022/12/29 03:07:42;;;;;;;16.58;11.45;;;11.60;99.90;;;;;;5067775;28;20390;-74
2022/12/29 03:10:26;;;;;;;19.25;11.32;;;11.60;99.90;;;;;;5068616;28;20520;-74
2022/12/29 03:16:05;;;;;;;18.23;11.35;;;11.70;99.90;;;;;;5067635;28;20040;-75
2022/12/29 03:18:56;;;;;;;18.70;11.15;;;11.70;99.90;;;;;;5087308;28;20044;-76
2022/12/29 03:24:31;;;;;;;19.63;12.60;;;11.80;99.90;;;;;;5088006;28;20200;-75
2022/12/29 03:27:05;;;;;;;18.25;12.10;;;11.80;99.90;;;;;;5087651;28;20440;-75
2022/12/29 03:29:52;;;;;;;15.73;11.18;;;11.70;99.90;;;;;;5087358;28;20733;-75
2022/12/29 03:32:23;;;;;;;16.95;12.82;;;11.80;99.90;;;;;;5086710;28;20063;-76
2022/12/29 03:34:51;;;;;;;18.00;10.48;;;11.80;99.90;;;;;;5071053;28;20508;-75
2022/12/29 03:37:28;;;;;;;17.45;10.93;;;11.80;99.90;;;;;;5070091;28;20049;-75
2022/12/29 03:39:57;;;;;;;19.10;12.30;;;11.80;99.90;;;;;;5067081;28;20056;-75
2022/12/29 03:42:30;;;;;;;16.00;10.57;;;11.80;99.90;;;;;;5069631;28;20397;-75
2022/12/29 03:44:58;;;;;;;17.40;10.80;;;11.70;99.90;;;;;;5070791;28;20052;-75
2022/12/29 03:47:26;;;;;;;17.88;10.90;;;11.70;99.90;;;;;;5071173;28;20044;-76
2022/12/29 03:49:53;;;;;;;19.52;11.98;;;11.70;99.90;;;;;;5073873;28;20489;-76
2022/12/29 03:52:21;;;;;;;18.20;10.38;;;11.60;99.90;;;;;;5073999;28;20141;-76
2022/12/29 03:54:50;;;;;;;15.25;9.77;;;11.60;99.90;;;;;;5090803;28;20040;-76
2022/12/29 03:57:19;;;;;;;17.05;10.27;;;11.60;99.90;;;;;;5090954;28;20486;-76
2022/12/29 04:00:00;;;;;;;14.52;9.82;;;11.60;99.90;;;;;;5090472;28;20040;-76
2022/12/29 04:02:30;;;;;;;16.55;10.98;;;11.50;99.90;;;;;;5092344;28;20135;-76
2022/12/29 04:04:58;;;;;;;14.77;10.63;;;11.50;99.90;;;;;;5074276;28;20154;-76
2022/12/29 04:07:25;;;;;;;17.05;10.77;;;11.50;99.90;;;;;;5074867;28;20051;-76
2022/12/29 04:09:54;;;;;;;19.65;12.13;;;11.50;99.90;;;;;;5074410;28;20427;-76
2022/12/29 04:12:24;;;;;;;16.08;10.35;;;11.50;99.90;;;;;;5090794;28;20139;-76
2022/12/29 04:14:51;;;;;;;15.05;10.77;;;11.50;99.90;;;;;;5074150;28;20174;-76
2022/12/29 04:17:19;;;;;;;19.17;12.65;;;11.50;99.90;;;;;;5091453;28;20134;-76
2022/12/29 04:19:50;;;;;;;17.35;11.10;;;11.50;99.90;;;;;;5090943;28;20110;-76
2022/12/29 04:22:18;;;;;;;16.67;12.18;;;11.50;99.90;;;;;;5076461;28;20131;-76
2022/12/29 04:24:46;;;;;;;18.15;11.77;;;11.50;99.90;;;;;;5073380;28;20359;-76
2022/12/29 04:27:13;;;;;;;19.85;12.10;;;11.50;99.90;;;;;;5057355;28;20097;-75
2022/12/29 04:29:52;;;;;;;19.60;12.50;;;11.50;99.90;;;;;;5092653;28;20105;-76
2022/12/29 04:32:46;;;;;;;19.48;11.82;;;11.50;99.90;;;;;;5068612;28;20093;-76
2022/12/29 04:35:13;;;;;;;19.05;11.43;;;11.50;99.90;;;;;;5074031;28;20432;-76
2022/12/29 04:37:41;;;;;;;18.20;12.35;;;11.40;99.90;;;;;;5091203;28;20052;-76
2022/12/29 04:40:10;;;;;;;18.17;12.95;;;11.40;99.90;;;;;;5091750;28;20048;-76
2022/12/29 04:42:38;;;;;;;16.05;11.30;;;11.40;99.90;;;;;;5088293;28;20645;-76
2022/12/29 04:45:07;;;;;;;14.68;9.95;;;11.40;99.90;;;;;;5090250;28;20126;-76
2022/12/29 04:47:47;;;;;;;20.48;11.82;;;11.30;99.90;;;;;;5073758;28;20090;-76
2022/12/29 04:50:49;;;;;;;16.45;11.30;;;11.30;99.90;;;;;;5055133;28;20052;-76
2022/12/29 04:53:18;;;;;;;18.33;10.73;;;11.30;99.90;;;;;;5071928;28;20044;-76
2022/12/29 04:55:53;;;;;;;20.05;10.77;;;11.30;99.90;;;;;;5069968;28;20048;-76
2022/12/29 04:58:21;;;;;;;15.13;11.32;;;11.30;99.90;;;;;;5069569;28;20162;-76
2022/12/29 05:00:51;;;;;;;18.30;10.68;;;11.30;99.90;;;;;;5057421;28;20047;-76
2022/12/29 05:03:22;;;;;;;17.35;10.63;;;11.30;99.90;;;;;;5090447;28;20055;-76
2022/12/29 05:05:52;;;;;;;18.00;11.63;;;11.30;99.90;;;;;;5090089;28;20044;-75
2022/12/29 05:08:20;;;;;;;18.00;10.77;;;11.30;99.90;;;;;;5090115;28;20078;-75
2022/12/29 05:10:51;;;;;;;17.05;11.07;;;11.30;99.90;;;;;;5073658;28;20380;-76
2022/12/29 05:13:20;;;;;;;16.20;10.25;;;11.30;99.90;;;;;;5090203;28;20372;-76
2022/12/29 05:15:53;;;;;;;15.70;9.52;;;11.30;99.90;;;;;;5089854;28;20055;-75
2022/12/29 05:18:23;;;;;;;14.60;9.23;;;11.30;99.90;;;;;;5089174;28;20109;-76
2022/12/29 05:20:50;;;;;;;17.52;10.57;;;11.30;99.90;;;;;;5089770;28;20123;-76
2022/12/29 05:23:20;;;;;;;19.17;10.38;;;11.30;99.90;;;;;;5085886;28;20045;-76
2022/12/29 05:26:01;;;;;;;16.15;10.23;;;11.30;99.90;;;;;;5068720;28;20041;-76
2022/12/29 05:28:36;;;;;;;14.50;9.18;;;11.40;99.90;;;;;;5069299;28;20075;-76
2022/12/29 05:31:12;;;;;;;15.82;10.13;;;11.40;99.90;;;;;;5076624;28;20032;-76
2022/12/29 05:33:39;;;;;;;16.35;10.25;;;11.30;99.90;;;;;;5055826;28;20044;-76
2022/12/29 05:36:09;;;;;;;24.70;16.50;;;11.30;99.90;;;;;;5072239;28;20044;-76
2022/12/29 05:38:41;;;;;;;33.95;21.20;;;11.10;99.90;;;;;;5072620;28;20058;-76
2022/12/29 05:41:10;;;;;;;39.60;24.92;;;11.20;99.90;;;;;;5089416;28;20123;-76
2022/12/29 05:43:56;;;;;;;41.08;23.52;;;11.10;99.90;;;;;;5090328;28;20040;-76
2022/12/29 05:46:34;;;;;;;28.52;19.67;;;11.20;99.90;;;;;;5061353;28;20041;-76
2022/12/29 05:49:28;;;;;;;78.93;42.80;;;11.10;99.90;;;;;;5061194;28;20392;-76
2022/12/29 05:52:06;;;;;;;59.28;35.13;;;11.10;99.90;;;;;;5066861;28;20144;-76
2022/12/29 05:54:34;;;;;;;66.45;35.20;;;11.10;99.90;;;;;;5072302;28;20383;-76
2022/12/29 05:57:08;;;;;;;39.53;24.70;;;11.10;99.90;;;;;;5072910;28;20062;-75
2022/12/29 05:59:36;;;;;;;31.92;19.75;;;11.10;99.90;;;;;;5088759;28;20055;-75
2022/12/29 06:02:04;;;;;;;22.98;15.00;;;11.10;99.90;;;;;;5087718;28;20117;-75
2022/12/29 06:04:32;;;;;;;22.50;12.85;;;11.10;99.90;;;;;;5088278;28;20097;-76
2022/12/29 06:07:00;;;;;;;25.48;15.43;;;11.10;99.90;;;;;;5071301;28;20044;-75
2022/12/29 06:09:38;;;;;;;23.58;14.40;;;11.20;99.90;;;;;;5087682;28;20044;-75
2022/12/29 06:12:07;;;;;;;21.55;14.45;;;11.20;99.90;;;;;;5071018;28;20056;-76
2022/12/29 06:14:37;;;;;;;22.90;14.20;;;11.20;99.90;;;;;;5071309;28;20086;-76
2022/12/29 06:17:06;;;;;;;19.92;11.98;;;11.30;99.90;;;;;;5071436;28;20048;-76
2022/12/29 06:19:34;;;;;;;16.83;9.73;;;11.20;99.90;;;;;;5088543;28;20100;-76
2022/12/29 06:22:01;;;;;;;17.40;12.07;;;11.30;99.90;;;;;;5087874;28;20072;-77
2022/12/29 06:24:32;;;;;;;15.98;10.82;;;11.30;99.90;;;;;;5088782;28;20197;-77
2022/12/29 06:27:00;;;;;;;17.33;11.38;;;11.50;99.90;;;;;;5088296;28;20052;-76
2022/12/29 06:29:27;;;;;;;21.10;11.57;;;11.80;99.90;;;;;;5071506;28;20040;-76
2022/12/29 06:31:58;;;;;;;17.15;11.43;;;12.10;99.90;;;;;;5071370;28;20533;-76
2022/12/29 06:34:26;;;;;;;23.65;13.32;;;12.40;99.90;;;;;;5070533;28;20044;-76
2022/12/29 06:36:54;;;;;;;21.75;13.35;;;12.70;99.90;;;;;;5071545;28;20596;-77
2022/12/29 06:39:21;;;;;;;17.52;11.38;;;13.10;99.90;;;;;;5089274;28;20039;-76
2022/12/29 06:42:00;;;;;;;13.27;8.95;;;13.40;99.90;;;;;;5087347;28;20140;-76
2022/12/29 06:44:46;;;;;;;10.07;6.63;;;13.60;99.90;;;;;;5089623;28;20452;-76
2022/12/29 06:47:14;;;;;;;18.63;10.88;;;13.70;99.90;;;;;;5087544;28;20355;-76
2022/12/29 06:49:41;;;;;;;19.80;12.23;;;13.90;99.90;;;;;;5088998;28;20063;-76
2022/12/29 06:52:09;;;;;;;17.15;11.88;;;14.10;99.90;;;;;;5085556;28;20093;-77
2022/12/29 06:54:39;;;;;;;17.13;10.50;;;14.30;99.90;;;;;;5071407;28;20060;-76
2022/12/29 06:57:07;;;;;;;15.30;11.15;;;14.60;99.90;;;;;;5088941;28;20048;-76
2022/12/29 06:59:34;;;;;;;14.50;9.63;;;14.50;99.90;;;;;;5089190;28;20036;-77
2022/12/29 07:02:02;;;;;;;16.35;10.23;;;14.20;99.90;;;;;;5087061;28;20525;-76
2022/12/29 07:04:29;;;;;;;16.45;10.93;;;13.90;99.90;;;;;;5071382;28;20047;-76
2022/12/29 07:06:57;;;;;;;11.90;8.65;;;13.50;99.90;;;;;;5087865;28;20055;-76
2022/12/29 07:09:24;;;;;;;12.30;8.75;;;13.30;99.90;;;;;;5087943;28;20045;-76
2022/12/29 07:11:51;;;;;;;13.13;8.95;;;13.10;99.90;;;;;;5087350;28;20055;-76
2022/12/29 07:14:19;;;;;;;11.10;7.90;;;12.90;99.90;;;;;;5070744;28;20059;-76
2022/12/29 07:16:46;;;;;;;13.07;7.70;;;12.70;99.90;;;;;;5089372;28;20403;-76
2022/12/29 07:19:14;;;;;;;10.95;7.85;;;12.60;99.90;;;;;;5071023;28;20171;-76
2022/12/29 07:21:42;;;;;;;37.83;9.20;;;12.60;99.90;;;;;;5085751;28;20109;-76
2022/12/29 07:24:12;;;;;;;10.05;6.95;;;12.50;99.90;;;;;;5088580;28;20047;-76
2022/12/29 07:26:41;;;;;;;11.10;7.28;;;12.50;99.90;;;;;;5088520;28;20051;-76
2022/12/29 07:29:09;;;;;;;10.30;7.13;;;12.50;99.90;;;;;;5089262;28;20514;-76
2022/12/29 07:31:36;;;;;;;9.23;6.57;;;12.40;99.90;;;;;;5088631;28;20071;-76
2022/12/29 07:34:04;;;;;;;12.98;6.70;;;12.70;99.90;;;;;;5088185;28;20160;-76
2022/12/29 07:36:31;;;;;;;11.68;6.97;;;12.80;99.90;;;;;;5088397;28;20051;-77
2022/12/29 07:39:01;;;;;;;10.02;6.13;;;13.00;99.90;;;;;;5075613;28;20123;-76
2022/12/29 07:41:29;;;;;;;11.35;7.45;;;13.00;99.90;;;;;;5058173;28;20147;-76
2022/12/29 07:43:59;;;;;;;9.77;6.50;;;13.00;99.90;;;;;;5087084;28;20066;-77
2022/12/29 07:46:49;;;;;;;12.60;6.72;;;13.30;99.90;;;;;;5088838;28;20052;-75
2022/12/29 07:49:17;;;;;;;12.95;8.90;;;13.30;99.90;;;;;;5086246;28;20075;-76
2022/12/29 07:51:44;;;;;;;9.38;6.93;;;13.60;99.90;;;;;;5069661;28;20051;-76
2022/12/29 07:54:12;;;;;;;13.82;8.73;;;13.80;99.90;;;;;;5088118;28;20043;-76
2022/12/29 07:56:40;;;;;;;12.57;7.88;;;13.80;99.90;;;;;;5087286;28;20044;-76
2022/12/29 07:59:07;;;;;;;11.70;7.47;;;14.20;99.90;;;;;;5089147;28;20055;-78
2022/12/29 08:01:35;;;;;;;12.88;8.18;;;14.80;99.90;;;;;;5088783;28;20052;-78
2022/12/29 08:04:02;;;;;;;13.75;8.52;;;15.50;99.90;;;;;;5053337;28;20515;-79
2022/12/29 08:06:30;;;;;;;11.88;8.70;;;16.20;99.90;;;;;;5086051;28;20051;-78
2022/12/29 08:09:00;;;;;;;12.30;7.65;;;16.30;99.90;;;;;;5075289;28;20407;-77
2022/12/29 08:11:30;;;;;;;11.80;8.43;;;16.60;99.90;;;;;;5079828;28;20081;-78
2022/12/29 08:13:58;;;;;;;12.73;7.25;;;17.00;99.90;;;;;;5071978;28;20100;-78
2022/12/29 08:16:26;;;;;;;13.90;7.70;;;17.40;99.90;;;;;;5087296;28;20047;-78
2022/12/29 08:18:53;;;;;;;11.18;6.93;;;17.60;99.90;;;;;;5052596;28;20052;-78
2022/12/29 08:21:21;;;;;;;10.77;6.90;;;17.80;99.90;;;;;;5073282;28;20066;-78
2022/12/29 08:23:48;;;;;;;9.75;7.22;;;17.70;99.90;;;;;;5069687;28;20048;-77
2022/12/29 08:26:16;;;;;;;10.63;7.40;;;17.70;99.90;;;;;;5085520;28;20420;-78
2022/12/29 08:28:43;;;;;;;11.25;8.30;;;17.50;99.90;;;;;;5087782;28;20122;-78
2022/12/29 08:31:11;;;;;;;9.38;6.53;;;17.30;99.90;;;;;;5079122;28;20036;-79
2022/12/29 08:33:39;;;;;;;9.70;6.28;;;17.20;99.90;;;;;;5083799;28;20047;-79
2022/12/29 08:36:08;;;;;;;16.20;11.48;;;17.30;99.90;;;;;;5077992;28;20068;-79
2022/12/29 08:38:35;;;;;;;15.48;13.25;;;17.20;99.90;;;;;;5072614;28;20061;-78
2022/12/29 08:41:03;;;;;;;19.98;12.85;;;17.00;99.90;;;;;;5084468;28;20040;-76
2022/12/29 08:43:31;;;;;;;16.00;12.43;;;16.80;99.90;;;;;;5088257;28;20170;-77
2022/12/29 08:45:59;;;;;;;12.88;9.20;;;16.70;99.90;;;;;;5083936;28;20437;-77
2022/12/29 08:48:27;;;;;;;12.90;8.30;;;16.60;99.90;;;;;;5063627;28;20045;-75
2022/12/29 08:50:54;;;;;;;9.75;7.57;;;16.70;99.90;;;;;;5088559;28;20036;-75
2022/12/29 08:53:22;;;;;;;8.68;6.15;;;16.70;99.90;;;;;;5078794;28;20134;-76
2022/12/29 08:55:56;;;;;;;8.65;6.00;;;16.80;99.90;;;;;;5079583;28;20044;-75
2022/12/29 08:58:29;;;;;;;11.88;6.65;;;17.00;99.90;;;;;;5070571;28;20858;-76
2022/12/29 09:00:57;;;;;;;9.43;6.32;;;17.20;99.90;;;;;;5079155;28;20058;-78
2022/12/29 09:03:26;;;;;;;7.88;6.03;;;17.40;99.90;;;;;;5045739;28;20161;-78
2022/12/29 09:06:15;;;;;;;8.98;5.93;;;17.50;99.90;;;;;;5070418;28;20040;-78
2022/12/29 09:08:44;;;;;;;11.23;7.05;;;17.40;99.90;;;;;;5099318;28;20040;-77
2022/12/29 09:11:19;;;;;;;8.52;5.88;;;17.30;99.90;;;;;;5095385;28;20131;-77
2022/12/29 09:13:47;;;;;;;9.90;6.88;;;17.30;99.90;;;;;;5071391;28;20481;-77
2022/12/29 09:16:15;;;;;;;13.40;8.20;;;17.20;99.90;;;;;;5104956;28;20046;-77
2022/12/29 09:18:44;;;;;;;10.45;7.18;;;17.20;99.90;;;;;;5106492;28;20117;-77
2022/12/29 09:21:12;;;;;;;8.98;6.30;;;17.20;99.90;;;;;;5087896;28;20064;-77
2022/12/29 09:23:40;;;;;;;11.63;6.55;;;17.20;99.90;;;;;;5085760;28;20071;-77
2022/12/29 09:26:08;;;;;;;11.55;7.45;;;17.00;99.90;;;;;;5083682;28;20906;-76
2022/12/29 09:28:36;;;;;;;12.07;8.63;;;17.00;99.90;;;;;;5069118;28;20041;-77
2022/12/29 09:31:04;;;;;;;15.68;8.32;;;17.00;99.90;;;;;;5072772;28;20048;-77
2022/12/29 09:33:35;;;;;;;11.38;8.27;;;17.00;99.90;;;;;;5089035;28;20390;-79
2022/12/29 09:36:03;;;;;;;13.15;8.80;;;17.00;99.90;;;;;;5088743;28;20143;-78
2022/12/29 09:38:31;;;;;;;12.63;8.98;;;17.00;99.90;;;;;;5085146;28;20081;-77
2022/12/29 09:41:13;;;;;;;15.00;10.60;;;17.10;99.90;;;;;;5053831;28;20058;-78
2022/12/29 09:44:11;;;;;;;14.05;8.52;;;17.40;99.90;;;;;;5089998;28;20071;-77
2022/12/29 09:46:44;;;;;;;12.55;8.93;;;17.60;99.90;;;;;;5067848;28;20090;-79
2022/12/29 09:49:23;;;;;;;14.85;9.35;;;17.80;99.90;;;;;;5069987;28;20066;-77
2022/12/29 09:51:59;;;;;;;13.25;8.90;;;17.70;99.90;;;;;;5077465;28;20075;-78
2022/12/29 09:54:32;;;;;;;;;;;17.70;99.90;;;;;;5072544;28;20084;-77
2022/12/29 09:57:00;;;;;;;13.93;8.38;;;17.50;99.90;;;;;;5088869;28;19977;-77
2022/12/29 09:59:41;;;;;;;12.85;8.65;;;17.40;99.90;;;;;;5088798;28;20148;-78
2022/12/29 10:02:27;;;;;;;12.82;8.52;;;17.50;99.90;;;;;;5090122;28;20222;-77
2022/12/29 10:04:55;;;;;;;15.90;9.53;;;17.40;99.90;;;;;;5088712;28;20106;-75
2022/12/29 10:07:55;;;;;;;14.55;9.48;;;17.40;99.90;;;;;;5088445;28;20290;-78
2022/12/29 10:10:43;;;;;;;15.60;10.05;;;17.30;99.90;;;;;;5089639;28;20097;-76
2022/12/29 10:13:32;;;;;;;12.77;8.60;;;17.40;99.90;;;;;;5054807;28;20441;-78
2022/12/29 10:16:03;;;;;;;10.32;7.90;;;17.40;99.90;;;;;;5087613;28;20174;-77
2022/12/29 10:19:08;;;;;;;12.35;8.65;;;17.40;99.90;;;;;;5088623;28;20070;-78
2022/12/29 10:21:39;;;;;;;13.65;7.80;;;17.30;99.90;;;;;;5088286;28;20461;-78
2022/12/29 10:24:12;;;;;;;11.40;7.78;;;17.30;99.90;;;;;;5088036;28;20036;-77
2022/12/29 10:26:41;;;;;;;12.70;9.13;;;17.40;99.90;;;;;;5058662;28;20071;-77
2022/12/29 10:29:22;;;;;;;13.55;8.15;;;17.40;99.90;;;;;;5069292;28;20848;-77
2022/12/29 10:32:00;;;;;;;12.25;8.10;;;17.60;99.90;;;;;;5069800;28;20094;-77
2022/12/29 10:34:45;;;;;;;16.17;8.60;;;17.70;99.90;;;;;;5037203;28;20072;-77
2022/12/29 10:37:34;;;;;;;12.48;7.68;;;17.80;99.90;;;;;;5090117;28;20097;-78
2022/12/29 10:40:37;;;;;;;11.73;7.05;;;17.70;99.90;;;;;;5090161;28;20054;-77
2022/12/29 10:43:16;;;;;;;11.77;7.13;;;17.80;99.90;;;;;;5059101;28;20176;-77
2022/12/29 10:45:48;;;;;;;15.02;8.35;;;17.80;99.90;;;;;;5090215;28;20166;-78
2022/12/29 10:48:30;;;;;;;14.73;7.15;;;18.00;99.90;;;;;;5085736;28;20123;-78
2022/12/29 10:51:00;;;;;;;14.43;8.98;;;18.10;99.90;;;;;;5082251;28;20142;-77
2022/12/29 10:53:45;;;;;;;13.68;8.07;;;18.10;99.90;;;;;;5085280;28;20630;-77
2022/12/29 10:56:27;;;;;;;9.13;7.43;;;17.90;99.90;;;;;;5073147;28;20032;-77
2022/12/29 10:58:59;;;;;;;13.55;8.82;;;17.70;99.90;;;;;;5077277;28;20040;-77
2022/12/29 11:01:48;;;;;;;12.27;8.10;;;17.50;99.90;;;;;;5083617;28;20040;-76
2022/12/29 11:04:32;;;;;;;12.48;8.85;;;17.60;99.90;;;;;;5062104;28;20856;-77
2022/12/29 11:07:01;;;;;;;12.57;7.65;;;17.60;99.90;;;;;;5063916;28;20489;-76
2022/12/29 11:09:32;;;;;;;15.55;10.23;;;17.50;99.90;;;;;;5086720;28;20047;-77
2022/12/29 11:12:27;;;;;;;16.27;10.98;;;17.50;99.90;;;;;;5068429;28;20032;-77
2022/12/29 11:15:09;;;;;;;12.90;9.20;;;17.50;99.90;;;;;;5070223;28;20494;-76
2022/12/29 11:17:48;;;;;;;14.98;10.00;;;17.30;99.90;;;;;;5077032;28;20047;-76
2022/12/29 11:20:32;;;;;;;14.93;9.55;;;17.10;99.90;;;;;;5074784;28;20045;-77
2022/12/29 11:23:02;;;;;;;15.68;9.52;;;17.00;99.90;;;;;;5070632;28;20040;-77
2022/12/29 11:25:30;;;;;;;16.77;10.82;;;17.00;99.90;;;;;;5089194;28;20055;-77
2022/12/29 11:28:15;;;;;;;15.98;10.60;;;16.90;99.90;;;;;;5071078;28;20039;-77
2022/12/29 11:30:43;;;;;;;12.35;8.68;;;16.80;99.90;;;;;;5060470;28;20055;-77
2022/12/29 11:33:11;;;;;;;16.98;9.05;;;17.10;99.90;;;;;;5061649;28;20047;-77
2022/12/29 11:35:42;;;;;;;11.23;7.72;;;17.20;99.90;;;;;;5074517;28;20140;-76
2022/12/29 11:38:24;;;;;;;11.75;7.53;;;17.50;99.90;;;;;;5076508;28;20072;-77
2022/12/29 11:40:52;;;;;;;9.38;7.70;;;17.90;99.90;;;;;;5078023;28;20058;-77
2022/12/29 11:43:33;;;;;;;12.20;7.82;;;18.10;99.90;;;;;;5078017;28;20109;-77
2022/12/29 11:46:04;;;;;;;11.23;7.05;;;18.00;99.90;;;;;;5073161;28;20094;-76
2022/12/29 11:48:39;;;;;;;10.40;7.63;;;17.60;99.90;;;;;;5049582;28;20071;-77
2022/12/29 11:51:09;;;;;;;11.55;6.78;;;17.40;99.90;;;;;;5074639;28;20044;-78
2022/12/29 11:53:47;;;;;;;12.55;8.38;;;17.50;99.90;;;;;;5082024;28;20483;-77
2022/12/29 11:56:18;;;;;;;11.35;8.10;;;17.30;99.90;;;;;;5067800;28;20490;-76
2022/12/29 11:58:49;;;;;;;14.15;10.10;;;17.40;99.90;;;;;;5070041;28;20056;-76
2022/12/29 12:01:30;;;;;;;10.05;8.00;;;17.50;99.90;;;;;;5086660;28;20070;-77
2022/12/29 12:04:14;;;;;;;11.63;8.15;;;17.50;99.90;;;;;;5086818;28;20044;-76
2022/12/29 12:06:59;;;;;;;10.80;6.35;;;17.60;99.90;;;;;;5086468;28;20140;-77
2022/12/29 12:09:32;;;;;;;11.52;8.27;;;17.70;99.90;;;;;;5088806;28;20044;-77
2022/12/29 12:12:01;;;;;;;8.63;7.55;;;17.90;99.90;;;;;;5088340;28;20051;-77
2022/12/29 12:14:43;;;;;;;13.05;9.70;;;18.00;99.90;;;;;;5089223;28;20054;-77
2022/12/29 12:17:40;;;;;;;11.32;8.50;;;18.20;99.90;;;;;;5090042;28;20135;-76
2022/12/29 12:20:46;;;;;;;12.32;7.93;;;18.20;99.90;;;;;;5091918;28;20083;-75
2022/12/29 12:23:22;;;;;;;12.40;8.90;;;17.80;99.90;;;;;;5090575;28;20135;-76
2022/12/29 12:26:18;;;;;;;11.75;8.13;;;17.60;99.90;;;;;;5090729;28;20044;-76
2022/12/29 12:29:24;;;;;;;15.07;9.07;;;17.40;99.90;;;;;;5084107;28;20482;-76
2022/12/29 12:32:16;;;;;;;14.63;9.32;;;17.40;99.90;;;;;;5090632;28;20040;-76
2022/12/29 12:34:46;;;;;;;13.68;9.50;;;17.40;99.90;;;;;;5091161;28;20103;-75
2022/12/29 12:37:28;;;;;;;16.13;10.98;;;17.60;99.90;;;;;;5057332;28;20048;-76
2022/12/29 12:40:20;;;;;;;11.57;9.02;;;17.70;99.90;;;;;;5090347;28;20057;-76
2022/12/29 12:43:06;;;;;;;8.23;5.38;;;17.50;99.90;;;;;;5092642;28;20070;-76
2022/12/29 12:45:55;;;;;;;8.05;6.03;;;17.30;99.90;;;;;;5091641;28;20040;-75
2022/12/29 12:48:26;;;;;;;10.27;6.75;;;17.20;99.90;;;;;;5070336;28;20063;-76
2022/12/29 12:51:12;;;;;;;12.27;8.15;;;16.90;99.90;;;;;;5069974;28;20052;-77
2022/12/29 12:54:01;;;;;;;16.55;11.52;;;16.90;99.90;;;;;;5069857;28;20060;-77
2022/12/29 12:56:28;;;;;;;16.92;10.55;;;16.80;99.90;;;;;;5086294;28;20081;-76
2022/12/29 12:59:18;;;;;;;10.10;6.90;;;16.70;99.90;;;;;;5089844;28;20055;-76
2022/12/29 13:01:49;;;;;;;8.57;5.43;;;16.60;99.90;;;;;;5063693;28;20048;-77
2022/12/29 13:04:41;;;;;;;10.68;6.13;;;16.60;99.90;;;;;;5079770;28;20060;-77
2022/12/29 13:07:50;;;;;;;8.77;5.28;;;16.70;99.90;;;;;;5083798;28;20060;-76
2022/12/29 13:10:51;;;;;;;10.68;5.50;;;16.80;99.90;;;;;;5068940;28;20056;-77
2022/12/29 13:13:42;;;;;;;8.00;5.95;;;17.00;99.90;;;;;;5074046;28;20103;-77
2022/12/29 13:16:36;;;;;;;8.65;6.70;;;17.20;99.90;;;;;;5076389;28;20059;-76
2022/12/29 13:19:25;;;;;;;12.77;7.72;;;17.30;99.90;;;;;;5081644;28;20052;-76
2022/12/29 13:22:06;;;;;;;9.15;6.75;;;17.50;99.90;;;;;;5083241;28;20056;-77
2022/12/29 13:24:47;;;;;;;11.32;7.97;;;17.60;99.90;;;;;;5067079;28;20048;-76
2022/12/29 13:27:27;;;;;;;10.40;7.35;;;17.60;99.90;;;;;;5079461;28;20048;-77
2022/12/29 13:30:09;;;;;;;9.80;7.10;;;17.20;99.90;;;;;;5062961;28;20044;-76
2022/12/29 13:32:48;;;;;;;10.73;7.15;;;17.00;99.90;;;;;;5078068;28;20100;-77
2022/12/29 13:35:15;;;;;;;11.15;6.05;;;17.00;99.90;;;;;;5075043;28;20036;-76
2022/12/29 13:37:57;;;;;;;9.40;6.35;;;17.00;99.90;;;;;;5090105;28;20055;-76
2022/12/29 13:40:28;;;;;;;9.23;6.50;;;16.90;99.90;;;;;;5089493;28;20399;-76
2022/12/29 13:42:57;;;;;;;9.95;8.00;;;16.90;99.90;;;;;;5091439;28;20048;-77
2022/12/29 13:45:28;;;;;;;11.55;7.40;;;16.90;99.90;;;;;;5089421;28;20398;-77
2022/12/29 13:48:09;;;;;;;13.20;9.23;;;16.90;99.90;;;;;;5089277;28;20135;-77
2022/12/29 13:50:39;;;;;;;11.07;8.07;;;17.00;99.90;;;;;;5090456;28;20037;-77
2022/12/29 13:53:23;;;;;;;10.05;6.28;;;17.00;99.90;;;;;;5055529;28;20048;-76